Time;durP1;ratioP1;P1;durP2;ratioP2;P2;SDS_P1;SDS_P2;PMS_P1;PMS_P2;Temp;Humidity;BMP_temperature;BMP_pressure;BME280_temperature;BME280_humidity;BME280_pressure;Samples;Min_cycle;Max_cycle;Signal;HPM_P1;HPM_P2
2020/12/04 00:02:05;;;;;;;0.60;0.57;;;5.00;99.90;;;5.58;100.00;-20834.06;5051230;28;20444;-70
2020/12/04 00:04:32;;;;;;;0.70;0.60;;;5.00;99.90;;;5.53;100.00;-20832.66;5053755;28;20908;-71
2020/12/04 00:06:59;;;;;;;0.70;0.60;;;4.90;99.90;;;5.50;100.00;-20831.84;5052261;28;20436;-70
2020/12/04 00:09:26;;;;;;;0.67;0.57;;;4.90;99.90;;;5.53;100.00;-20832.81;5053461;28;20416;-71
2020/12/04 00:11:53;;;;;;;0.60;0.60;;;4.90;99.90;;;5.57;100.00;-20833.78;5047382;28;20452;-71
2020/12/04 00:14:21;;;;;;;0.93;0.93;;;5.00;99.90;;;5.55;100.00;-20833.38;5053251;28;20460;-70
2020/12/04 00:16:48;;;;;;;0.67;0.50;;;5.00;99.90;;;5.43;100.00;-20829.88;5042363;28;20444;-71
2020/12/04 00:19:15;;;;;;;0.70;0.60;;;4.90;99.90;;;5.52;100.00;-20832.38;5033619;28;20452;-70
2020/12/04 00:21:42;;;;;;;0.63;0.60;;;4.90;99.90;;;5.45;100.00;-20830.44;5048808;28;20440;-69
2020/12/04 00:24:09;;;;;;;0.63;0.53;;;4.90;99.90;;;5.56;100.00;-20833.50;5040819;28;20468;-71
2020/12/04 00:26:38;;;;;;;0.70;0.63;;;4.90;99.90;;;5.49;100.00;-20831.69;5056471;28;20962;-69
2020/12/04 00:29:05;;;;;;;1.67;1.57;;;4.90;99.90;;;5.48;100.00;-20831.41;5057418;28;20937;-70
2020/12/04 00:31:33;;;;;;;0.70;0.60;;;4.90;99.90;;;5.42;100.00;-20829.75;5041397;28;20476;-69
2020/12/04 00:34:00;;;;;;;0.90;0.90;;;4.90;99.90;;;5.54;100.00;-20832.94;5048218;28;20452;-71
2020/12/04 00:36:28;;;;;;;0.83;0.83;;;4.90;99.90;;;5.54;100.00;-20832.94;5043164;28;20437;-69
2020/12/04 00:38:56;;;;;;;0.70;0.70;;;4.90;99.90;;;5.36;100.00;-20827.94;5035862;28;20482;-71
2020/12/04 00:41:23;;;;;;;0.70;0.60;;;4.90;99.90;;;5.51;100.00;-20832.13;5048901;28;20513;-71
2020/12/04 00:43:50;;;;;;;0.67;0.60;;;4.90;99.90;;;5.49;100.00;-20831.69;5055590;28;20844;-70
2020/12/04 00:46:17;;;;;;;0.70;0.60;;;4.90;99.90;;;5.48;100.00;-20831.28;5056586;28;20432;-70
2020/12/04 00:48:45;;;;;;;0.70;0.60;;;4.90;99.90;;;5.59;100.00;-20834.34;5055157;28;20450;-70
2020/12/04 00:51:13;;;;;;;0.70;0.60;;;4.90;99.90;;;5.43;100.00;-20829.88;5051583;28;20436;-70
2020/12/04 00:53:41;;;;;;;1.00;1.00;;;4.90;99.90;;;5.50;100.00;-20831.84;5044026;28;20460;-70
2020/12/04 00:56:08;;;;;;;0.70;0.60;;;4.90;99.90;;;5.54;100.00;-20832.94;5035339;28;20487;-70
2020/12/04 00:58:39;;;;;;;0.70;0.60;;;4.90;99.90;;;5.45;100.00;-20830.44;5052548;28;20444;-71
2020/12/04 01:01:06;;;;;;;0.70;0.50;;;4.90;99.90;;;5.61;100.00;-20834.91;5047125;28;20450;-69
2020/12/04 01:03:33;;;;;;;0.70;0.70;;;4.90;99.90;;;5.44;100.00;-20830.16;5056546;28;20434;-70
2020/12/04 01:06:01;;;;;;;0.70;0.60;;;4.90;99.90;;;5.55;100.00;-20833.22;5061869;28;20444;-71
2020/12/04 01:08:28;;;;;;;0.70;0.60;;;4.90;99.90;;;5.57;100.00;-20833.78;5035115;28;20432;-69
2020/12/04 01:10:56;;;;;;;0.70;0.60;;;5.00;99.90;;;5.55;100.00;-20833.22;5047026;28;20497;-70
2020/12/04 01:13:23;;;;;;;0.70;0.60;;;4.90;99.90;;;5.54;100.00;-20832.94;5055110;28;20487;-70
2020/12/04 01:15:51;;;;;;;0.70;0.50;;;4.90;99.90;;;5.44;100.00;-20830.16;5054765;28;20925;-70
2020/12/04 01:18:18;;;;;;;0.70;0.60;;;4.90;99.90;;;5.57;100.00;-20833.78;5056485;28;20463;-71
2020/12/04 01:20:45;;;;;;;0.70;0.60;;;4.90;99.90;;;5.52;100.00;-20832.53;5047951;28;20494;-70
2020/12/04 01:23:13;;;;;;;0.70;0.60;;;4.90;99.90;;;5.38;100.00;-20828.50;5035962;28;20491;-71
2020/12/04 01:25:40;;;;;;;5.23;1.43;;;4.90;99.90;;;5.47;100.00;-20831.00;5036172;28;20452;-72
2020/12/04 01:28:08;;;;;;;1.10;0.90;;;4.90;99.90;;;5.49;100.00;-20831.56;5054694;28;20428;-70
2020/12/04 01:30:35;;;;;;;0.70;0.50;;;4.90;99.90;;;5.56;100.00;-20833.50;5055518;28;20444;-71
2020/12/04 01:33:02;;;;;;;0.70;0.70;;;4.90;99.90;;;5.58;100.00;-20834.19;5052497;28;20449;-70
2020/12/04 01:35:29;;;;;;;0.70;0.60;;;4.90;99.90;;;5.51;100.00;-20832.13;5045569;28;20466;-71
2020/12/04 01:37:56;;;;;;;0.60;0.60;;;4.90;99.90;;;5.40;100.00;-20829.19;5055814;28;20461;-71
2020/12/04 01:40:24;;;;;;;0.70;0.60;;;4.80;99.90;;;5.45;100.00;-20830.44;5050809;28;20457;-71
2020/12/04 01:42:51;;;;;;;0.70;0.60;;;4.90;99.90;;;5.36;100.00;-20827.94;5035936;28;21002;-70
2020/12/04 01:45:18;;;;;;;0.60;0.50;;;4.90;99.90;;;5.38;100.00;-20828.50;5060498;28;20835;-70
2020/12/04 01:47:45;;;;;;;0.70;0.57;;;4.90;99.90;;;5.35;100.00;-20827.81;5036125;28;20421;-71
2020/12/04 01:50:12;;;;;;;1.43;1.33;;;4.90;99.90;;;5.46;100.00;-20830.72;5050460;28;20512;-69
2020/12/04 01:52:41;;;;;;;1.00;1.00;;;4.90;99.90;;;5.30;100.00;-20826.56;5035661;28;20440;-70
2020/12/04 01:55:09;;;;;;;0.70;0.60;;;4.90;99.90;;;5.35;100.00;-20827.66;5052035;28;20936;-71
2020/12/04 01:57:43;;;;;;;0.70;0.60;;;4.80;99.90;;;5.42;100.00;-20829.75;5055744;28;20489;-72
2020/12/04 02:00:10;;;;;;;0.80;0.80;;;4.80;99.90;;;5.47;100.00;-20831.00;5044804;28;20446;-70
2020/12/04 02:02:43;;;;;;;0.70;0.60;;;4.80;99.90;;;5.30;100.00;-20826.41;5053794;28;20444;-70
2020/12/04 02:05:10;;;;;;;0.80;0.60;;;4.80;99.90;;;5.32;100.00;-20827.09;5046162;28;20500;-71
2020/12/04 02:07:46;;;;;;;0.80;0.80;;;4.80;99.90;;;5.29;100.00;-20826.13;5050840;28;20444;-71
2020/12/04 02:10:30;;;;;;;0.70;0.60;;;4.80;99.90;;;5.24;100.00;-20824.88;5047038;28;20466;-69
2020/12/04 02:12:59;;;;;;;0.60;0.50;;;4.80;99.90;;;5.35;100.00;-20827.66;5055714;28;20471;-69
2020/12/04 02:15:27;;;;;;;0.70;0.60;;;4.70;99.90;;;5.26;100.00;-20825.44;5046651;28;20455;-72
2020/12/04 02:17:56;;;;;;;0.70;0.60;;;4.70;99.90;;;5.27;100.00;-20825.56;5050003;28;20198;-71
2020/12/04 02:20:23;;;;;;;0.70;0.57;;;4.70;99.90;;;5.11;100.00;-20821.25;5046400;28;20521;-73
2020/12/04 02:22:51;;;;;;;0.70;0.60;;;4.70;99.90;;;5.18;100.00;-20823.06;5035863;28;20425;-70
2020/12/04 02:25:18;;;;;;;0.60;0.57;;;4.60;99.90;;;5.11;100.00;-20821.13;5035530;28;20267;-72
2020/12/04 02:27:48;;;;;;;0.90;0.80;;;4.60;99.90;;;5.04;100.00;-20819.31;5047671;28;20462;-70
2020/12/04 02:30:22;;;;;;;0.90;0.90;;;4.60;99.90;;;5.04;100.00;-20819.44;5054959;28;20502;-70
2020/12/04 02:32:50;;;;;;;0.70;0.60;;;4.60;99.90;;;5.13;100.00;-20821.81;5026750;28;20431;-69
2020/12/04 02:35:21;;;;;;;0.70;0.60;;;4.70;99.90;;;5.17;100.00;-20822.94;5034650;28;20659;-70
2020/12/04 02:37:48;;;;;;;1.03;1.03;;;4.60;99.90;;;5.12;100.00;-20821.53;5035090;28;20460;-69
2020/12/04 02:40:16;;;;;;;0.70;0.60;;;4.70;99.90;;;5.08;100.00;-20820.56;5038550;28;20517;-69
2020/12/04 02:42:43;;;;;;;0.83;0.83;;;4.60;99.90;;;5.12;100.00;-20821.53;5036448;28;20559;-70
2020/12/04 02:45:10;;;;;;;0.70;0.60;;;4.60;99.90;;;5.00;100.00;-20818.19;5054657;28;20912;-68
2020/12/04 02:47:38;;;;;;;0.70;0.70;;;4.60;99.90;;;5.10;100.00;-20820.97;5035960;28;20472;-70
2020/12/04 02:50:05;;;;;;;1.13;1.03;;;4.60;99.90;;;5.04;100.00;-20819.31;5037307;28;20543;-70
2020/12/04 02:52:32;;;;;;;0.70;0.60;;;4.60;99.90;;;5.04;100.00;-20819.31;5052991;28;20428;-70
2020/12/04 02:54:59;;;;;;;2.28;1.02;;;4.60;99.90;;;4.99;100.00;-20818.06;5035731;28;20246;-71
2020/12/04 02:57:29;;;;;;;0.70;0.70;;;4.60;99.90;;;5.05;100.00;-20819.59;5034608;28;20190;-72
2020/12/04 02:59:55;;;;;;;0.60;0.50;;;4.60;99.90;;;5.02;100.00;-20818.88;5034776;28;20436;-70
2020/12/04 03:02:22;;;;;;;0.70;0.60;;;4.60;99.90;;;4.96;100.00;-20817.09;5048034;28;20445;-71
2020/12/04 03:04:49;;;;;;;0.70;0.60;;;4.60;99.90;;;5.06;100.00;-20819.88;5034444;28;20405;-69
2020/12/04 03:07:16;;;;;;;0.70;0.60;;;4.60;99.90;;;5.01;100.00;-20818.47;5034264;28;20464;-69
2020/12/04 03:09:43;;;;;;;0.70;0.60;;;4.70;99.90;;;5.07;100.00;-20820.13;5036340;28;20193;-70
2020/12/04 03:12:10;;;;;;;0.60;0.60;;;4.60;99.90;;;5.04;100.00;-20819.31;5052765;28;20527;-70
2020/12/04 03:14:38;;;;;;;0.70;0.60;;;4.60;99.90;;;5.10;100.00;-20820.97;5054012;28;20464;-70
2020/12/04 03:17:05;;;;;;;0.70;0.60;;;4.60;99.90;;;4.99;100.00;-20818.06;5052084;28;20217;-70
2020/12/04 03:19:32;;;;;;;0.70;0.60;;;4.60;99.90;;;5.01;100.00;-20818.47;5052368;28;20486;-72
2020/12/04 03:21:59;;;;;;;0.70;0.60;;;4.60;99.90;;;5.07;100.00;-20820.13;5034157;28;20464;-70
2020/12/04 03:24:25;;;;;;;0.60;0.60;;;4.60;99.90;;;5.06;100.00;-20819.88;5047062;28;20443;-70
2020/12/04 03:26:53;;;;;;;0.60;0.60;;;4.60;99.90;;;5.20;100.00;-20823.75;5052676;28;20554;-70
2020/12/04 03:29:20;;;;;;;0.63;0.57;;;4.60;99.90;;;5.13;100.00;-20821.69;5053309;28;20473;-71
2020/12/04 03:31:48;;;;;;;0.60;0.50;;;4.70;99.90;;;5.04;100.00;-20819.31;5043081;28;20520;-69
2020/12/04 03:34:14;;;;;;;0.70;0.67;;;4.70;99.90;;;5.16;100.00;-20822.66;5033763;28;20500;-68
2020/12/04 03:36:41;;;;;;;0.70;0.70;;;4.70;99.90;;;5.28;100.00;-20826.00;5048929;28;20962;-70
2020/12/04 03:39:08;;;;;;;0.63;0.60;;;4.70;99.90;;;5.29;100.00;-20826.25;5053914;28;20889;-70
2020/12/04 03:41:35;;;;;;;0.70;0.60;;;4.80;99.90;;;5.34;100.00;-20827.53;5051169;28;20964;-68
2020/12/04 03:44:02;;;;;;;1.43;1.33;;;4.80;99.90;;;5.30;100.00;-20826.41;5052117;28;20422;-70
2020/12/04 03:46:29;;;;;;;0.90;0.90;;;4.80;99.90;;;5.38;100.00;-20828.63;5047929;28;20463;-71
2020/12/04 03:48:56;;;;;;;0.70;0.60;;;4.90;99.90;;;5.29;100.00;-20826.25;5053662;28;20432;-70
2020/12/04 03:51:23;;;;;;;0.70;0.60;;;4.90;99.90;;;5.42;100.00;-20829.59;5052584;28;20527;-70
2020/12/04 03:53:50;;;;;;;0.70;0.50;;;4.90;99.90;;;5.40;100.00;-20829.06;5043863;28;20210;-70
2020/12/04 03:56:17;;;;;;;0.60;0.60;;;4.80;99.90;;;5.30;100.00;-20826.56;5033325;28;20555;-70
2020/12/04 03:58:44;;;;;;;0.80;0.80;;;4.90;99.90;;;5.43;100.00;-20829.88;5033051;28;20413;-70
2020/12/04 04:01:11;;;;;;;0.70;0.60;;;4.90;99.90;;;5.35;100.00;-20827.66;5046671;28;21066;-68
2020/12/04 04:03:38;;;;;;;0.70;0.60;;;4.90;99.90;;;5.38;100.00;-20828.50;5053593;28;20435;-69
2020/12/04 04:06:06;;;;;;;0.67;0.60;;;4.90;99.90;;;5.44;100.00;-20830.16;5052729;28;20447;-69
2020/12/04 04:08:32;;;;;;;1.33;1.23;;;4.90;99.90;;;5.43;100.00;-20830.03;5052227;28;20539;-70
2020/12/04 04:10:59;;;;;;;0.70;0.60;;;4.90;99.90;;;5.48;100.00;-20831.28;5052914;28;20444;-70
2020/12/04 04:13:26;;;;;;;0.70;0.60;;;4.90;99.90;;;5.51;100.00;-20832.25;5053272;28;20466;-70
2020/12/04 04:15:54;;;;;;;0.70;0.57;;;5.00;99.90;;;5.48;100.00;-20831.28;5048840;28;20552;-71
2020/12/04 04:18:21;;;;;;;0.60;0.57;;;5.00;99.90;;;5.62;100.00;-20835.16;5031842;28;20457;-70
2020/12/04 04:20:48;;;;;;;0.70;0.60;;;5.10;99.90;;;5.55;100.00;-20833.22;5040795;28;20468;-70
2020/12/04 04:23:16;;;;;;;0.70;0.60;;;5.10;99.90;;;5.65;100.00;-20836.00;5047134;28;20455;-69
2020/12/04 04:25:42;;;;;;;0.60;0.50;;;5.10;99.90;;;5.73;100.00;-20838.22;5034054;28;20544;-69
2020/12/04 04:28:12;;;;;;;0.70;0.50;;;5.20;99.90;;;5.70;100.00;-20837.41;5043344;28;20502;-70
2020/12/04 04:30:40;;;;;;;0.67;0.57;;;5.20;99.90;;;5.75;100.00;-20838.66;5053078;28;20474;-69
2020/12/04 04:33:07;;;;;;;0.70;0.70;;;5.30;99.90;;;5.81;100.00;-20840.31;5036138;28;20527;-70
2020/12/04 04:35:34;;;;;;;0.90;0.90;;;5.30;99.90;;;5.85;100.00;-20841.28;5034342;28;20468;-70
2020/12/04 04:38:01;;;;;;;0.70;0.50;;;5.40;99.90;;;5.96;100.00;-20844.50;5033445;28;20456;-70
2020/12/04 04:40:30;;;;;;;0.70;0.50;;;5.40;99.90;;;6.01;100.00;-20845.75;5032853;28;20459;-70
2020/12/04 04:43:10;;;;;;;0.67;0.60;;;5.50;99.90;;;5.96;100.00;-20844.34;5044081;28;20535;-69
2020/12/04 04:45:40;;;;;;;1.03;1.00;;;5.50;99.90;;;5.96;100.00;-20844.50;5051390;28;20436;-68
2020/12/04 04:48:15;;;;;;;0.70;0.60;;;5.50;99.90;;;6.06;100.00;-20847.13;5037909;28;20424;-69
2020/12/04 04:50:46;;;;;;;0.70;0.67;;;5.60;99.90;;;5.93;100.00;-20843.66;5042062;28;20972;-70
2020/12/04 04:53:15;;;;;;;0.70;0.70;;;5.50;99.90;;;6.07;100.00;-20847.28;5042084;28;20440;-69
2020/12/04 04:55:43;;;;;;;0.70;0.60;;;5.50;99.90;;;6.14;100.00;-20849.22;5044229;28;20507;-69
2020/12/04 04:58:10;;;;;;;0.70;0.60;;;5.60;99.90;;;6.12;100.00;-20848.81;5040817;28;20474;-68
2020/12/04 05:00:38;;;;;;;0.80;0.80;;;5.60;99.90;;;6.12;100.00;-20848.81;5047495;28;20811;-68
2020/12/04 05:03:07;;;;;;;0.60;0.60;;;5.70;99.90;;;6.20;100.00;-20851.03;5037178;28;20440;-68
2020/12/04 05:05:45;;;;;;;0.60;0.50;;;5.60;99.90;;;6.21;100.00;-20851.31;5037781;28;20523;-69
2020/12/04 05:08:16;;;;;;;0.63;0.50;;;5.60;99.90;;;6.01;100.00;-20845.75;5033079;28;20425;-69
2020/12/04 05:10:45;;;;;;;0.60;0.60;;;5.60;99.90;;;6.20;100.00;-20851.03;5044214;28;20463;-69
2020/12/04 05:13:17;;;;;;;0.70;0.60;;;5.70;99.90;;;6.15;100.00;-20849.50;5055020;28;20849;-69
2020/12/04 05:15:44;;;;;;;0.70;0.60;;;5.70;99.90;;;6.28;100.00;-20853.25;5055245;28;20488;-69
2020/12/04 05:18:13;;;;;;;0.70;0.57;;;5.70;99.90;;;6.12;100.00;-20848.81;5056279;28;20423;-68
2020/12/04 05:20:42;;;;;;;0.63;0.60;;;5.60;99.90;;;6.15;100.00;-20849.66;5055385;28;20543;-69
2020/12/04 05:23:10;;;;;;;0.70;0.60;;;5.70;99.90;;;6.19;100.00;-20850.75;5046768;28;20479;-69
2020/12/04 05:25:44;;;;;;;0.60;0.60;;;5.70;99.90;;;6.23;100.00;-20851.72;5045716;28;20556;-68
2020/12/04 05:28:14;;;;;;;0.70;0.60;;;5.70;99.90;;;6.28;100.00;-20853.25;5054738;28;20493;-68
2020/12/04 05:30:46;;;;;;;0.63;0.50;;;5.80;99.90;;;6.34;100.00;-20854.66;5034733;28;20437;-69
2020/12/04 05:33:13;;;;;;;0.80;0.80;;;5.80;99.90;;;6.29;100.00;-20853.53;5041478;28;20459;-69
2020/12/04 05:35:40;;;;;;;0.80;0.80;;;5.80;99.90;;;6.39;100.00;-20856.19;5046905;28;20551;-69
2020/12/04 05:38:15;;;;;;;3.23;2.60;;;5.90;99.90;;;6.54;100.00;-20860.34;5045642;28;21047;-69
2020/12/04 05:40:45;;;;;;;0.70;0.60;;;5.90;99.90;;;6.40;100.00;-20856.31;5049795;28;20464;-69
2020/12/04 05:43:13;;;;;;;0.80;0.80;;;5.90;99.90;;;6.47;100.00;-20858.25;5034364;28;20523;-69
2020/12/04 05:45:40;;;;;;;0.70;0.50;;;5.90;99.90;;;6.51;100.00;-20859.50;5035988;28;20760;-68
2020/12/04 05:48:15;;;;;;;0.70;0.60;;;5.90;99.90;;;6.44;100.00;-20857.44;5053927;28;20436;-68
2020/12/04 05:50:43;;;;;;;0.77;0.77;;;5.90;99.90;;;6.52;100.00;-20859.78;5056364;28;20424;-69
2020/12/04 05:53:11;;;;;;;0.70;0.60;;;6.00;99.90;;;6.61;100.00;-20862.16;5051530;28;20928;-68
2020/12/04 05:55:38;;;;;;;0.70;0.60;;;6.00;99.90;;;6.60;100.00;-20861.75;5036212;28;20477;-69
2020/12/04 05:58:11;;;;;;;0.70;0.60;;;6.00;99.90;;;6.54;100.00;-20860.22;5036124;28;20483;-69
2020/12/04 06:00:38;;;;;;;0.70;0.60;;;6.00;99.90;;;6.60;100.00;-20861.88;5035895;28;20444;-69
2020/12/04 06:03:05;;;;;;;0.70;0.67;;;6.00;99.90;;;6.61;100.00;-20862.00;5035771;28;20916;-68
2020/12/04 06:05:33;;;;;;;0.70;0.60;;;6.00;99.90;;;6.73;100.00;-20865.50;5035834;28;20424;-69
2020/12/04 06:08:02;;;;;;;0.70;0.60;;;6.10;99.90;;;6.63;100.00;-20862.56;5035318;28;20434;-69
2020/12/04 06:10:31;;;;;;;0.70;0.60;;;6.10;99.90;;;6.60;100.00;-20861.75;5051618;28;20498;-69
2020/12/04 06:12:59;;;;;;;0.70;0.60;;;6.10;99.90;;;6.61;100.00;-20862.16;5055516;28;20424;-69
2020/12/04 06:15:30;;;;;;;0.70;0.60;;;6.10;99.90;;;6.66;100.00;-20863.53;5055468;28;20486;-68
2020/12/04 06:18:02;;;;;;;0.70;0.60;;;6.10;99.90;;;6.76;100.00;-20866.31;5055290;28;20873;-69
2020/12/04 06:20:38;;;;;;;0.70;0.60;;;6.10;99.90;;;6.68;100.00;-20864.09;5055375;28;20908;-69
2020/12/04 06:23:12;;;;;;;0.67;0.53;;;6.10;99.90;;;6.67;100.00;-20863.69;5050926;28;20425;-67
2020/12/04 06:26:07;;;;;;;0.70;0.60;;;6.20;99.90;;;6.86;100.00;-20868.97;5035135;28;20489;-68
2020/12/04 06:28:38;;;;;;;0.70;0.60;;;6.20;99.90;;;6.74;100.00;-20865.78;5035215;28;20421;-68
2020/12/04 06:31:14;;;;;;;0.70;0.60;;;6.30;99.90;;;6.82;100.00;-20867.84;5044674;28;20459;-68
2020/12/04 06:33:46;;;;;;;0.70;0.60;;;6.30;99.90;;;7.01;100.00;-20873.00;5035251;28;20417;-68
2020/12/04 06:36:34;;;;;;;0.70;0.57;;;6.30;99.90;;;6.78;100.00;-20866.75;5035590;28;20932;-68
2020/12/04 06:39:06;;;;;;;0.70;0.60;;;6.30;99.90;;;6.90;100.00;-20869.94;5034840;28;20414;-69
2020/12/04 06:41:35;;;;;;;0.70;0.60;;;6.30;99.90;;;6.86;100.00;-20868.81;5034832;28;21002;-69
2020/12/04 06:44:04;;;;;;;0.70;0.60;;;6.40;99.90;;;6.99;100.00;-20872.44;5035266;28;20432;-69
2020/12/04 06:46:41;;;;;;;0.70;0.50;;;6.40;99.90;;;6.87;100.00;-20869.09;5039773;28;20437;-69
2020/12/04 06:52:00;;;;;;;0.70;0.60;;;6.40;99.90;;;6.98;100.00;-20872.16;5055031;28;20917;-69
2020/12/04 06:54:29;;;;;;;1.00;0.90;;;6.40;99.90;;;7.11;100.00;-20875.78;5039693;28;20856;-68
2020/12/04 06:56:57;;;;;;;0.70;0.60;;;6.50;99.90;;;7.02;100.00;-20873.41;5033628;28;20825;-69
2020/12/04 06:59:28;;;;;;;0.70;0.60;;;6.50;99.90;;;7.12;100.00;-20876.06;5049577;28;20429;-69
2020/12/04 07:02:01;;;;;;;0.60;0.50;;;6.50;99.90;;;7.13;100.00;-20876.19;5054789;28;20762;-69
2020/12/04 07:04:30;;;;;;;0.70;0.60;;;6.50;99.90;;;7.00;100.00;-20872.72;5054691;28;20511;-69
2020/12/04 07:07:09;;;;;;;0.70;0.50;;;6.50;99.90;;;7.15;100.00;-20876.88;5054728;28;20979;-69
2020/12/04 07:09:37;;;;;;;0.67;0.50;;;6.50;99.90;;;7.13;100.00;-20876.19;5054435;28;20415;-68
2020/12/04 07:12:05;;;;;;;0.60;0.50;;;6.50;99.90;;;7.13;100.00;-20876.31;5054841;28;20936;-69
2020/12/04 07:14:32;;;;;;;0.70;0.60;;;6.50;99.90;;;7.12;100.00;-20876.06;5055093;28;20462;-68
2020/12/04 07:17:01;;;;;;;0.60;0.60;;;6.60;99.90;;;7.06;100.00;-20874.38;5054474;28;20841;-69
2020/12/04 07:19:28;;;;;;;0.70;0.70;;;6.60;99.90;;;7.07;100.00;-20874.53;5048029;28;20532;-69
2020/12/04 07:21:55;;;;;;;0.60;0.50;;;6.60;99.90;;;7.17;100.00;-20877.28;5048383;28;20819;-68
2020/12/04 07:24:22;;;;;;;0.60;0.50;;;6.60;99.90;;;7.12;100.00;-20876.06;5040361;28;20425;-69
2020/12/04 07:26:57;;;;;;;0.70;0.60;;;6.60;99.90;;;7.05;100.00;-20874.09;5035015;28;20479;-68
2020/12/04 07:29:24;;;;;;;0.70;0.50;;;6.50;99.90;;;7.01;100.00;-20873.13;5046935;28;20757;-68
2020/12/04 07:31:53;;;;;;;0.70;0.60;;;6.50;99.90;;;7.02;100.00;-20873.28;5054546;28;20904;-70
2020/12/04 07:34:24;;;;;;;0.67;0.60;;;6.50;99.90;;;6.95;100.00;-20871.47;5053789;28;20551;-69
2020/12/04 07:36:54;;;;;;;0.70;0.60;;;6.50;99.90;;;6.95;100.00;-20871.31;5054232;28;20916;-69
2020/12/04 07:39:24;;;;;;;0.70;0.50;;;6.50;99.90;;;7.01;100.00;-20873.00;5053564;28;20464;-69
2020/12/04 07:41:52;;;;;;;0.70;0.50;;;6.50;99.90;;;7.09;100.00;-20875.06;5053599;28;20463;-69
2020/12/04 07:44:31;;;;;;;0.70;0.60;;;6.60;99.90;;;7.19;100.00;-20877.84;5052359;28;21673;-69
2020/12/04 07:47:06;;;;;;;0.60;0.50;;;6.70;99.90;;;7.21;100.00;-20878.53;5053105;28;20420;-70
2020/12/04 07:49:36;;;;;;;0.70;0.60;;;6.70;99.90;;;7.26;100.00;-20879.94;5053801;28;20413;-69
2020/12/04 07:52:16;;;;;;;0.70;0.60;;;6.70;99.90;;;7.36;100.00;-20882.44;5053646;28;20524;-69
2020/12/04 07:54:43;;;;;;;0.67;0.60;;;6.70;99.90;;;7.41;100.00;-20883.81;5048719;28;20460;-69
2020/12/04 07:57:12;;;;;;;1.37;1.27;;;6.80;99.90;;;7.40;100.00;-20883.53;5053861;28;20511;-70
2020/12/04 07:59:40;;;;;;;0.70;0.60;;;6.80;99.90;;;7.29;100.00;-20880.50;5054030;28;20947;-69
2020/12/04 08:02:09;;;;;;;0.60;0.60;;;6.80;99.90;;;7.37;100.00;-20882.72;5052483;28;20444;-69
2020/12/04 08:04:42;;;;;;;0.90;0.90;;;6.70;99.90;;;7.32;100.00;-20881.31;5069080;28;20426;-69
2020/12/04 08:07:11;;;;;;;0.67;0.60;;;6.70;99.90;;;7.29;100.00;-20880.50;5053068;28;20425;-70
2020/12/04 08:09:40;;;;;;;0.70;0.60;;;6.70;99.90;;;7.24;100.00;-20879.25;5052990;28;20424;-69
2020/12/04 08:12:12;;;;;;;0.60;0.60;;;6.80;99.90;;;7.26;100.00;-20879.94;5053324;28;20401;-70
2020/12/04 08:14:46;;;;;;;0.60;0.53;;;6.80;99.90;;;7.43;100.00;-20884.38;5053478;28;20452;-69
2020/12/04 08:17:19;;;;;;;0.70;0.60;;;6.80;99.90;;;7.50;100.00;-20886.31;5053560;28;20414;-70
2020/12/04 08:19:47;;;;;;;0.70;0.60;;;6.90;99.90;;;7.62;100.00;-20889.66;5053297;28;20413;-70
2020/12/04 08:22:14;;;;;;;0.70;0.60;;;7.00;99.90;;;7.87;100.00;-20896.31;5048273;28;20905;-69
2020/12/04 08:24:50;;;;;;;0.60;0.50;;;7.10;99.90;;;7.84;100.00;-20895.47;5032892;28;20475;-69
2020/12/04 08:27:24;;;;;;;0.60;0.50;;;7.20;99.90;;;7.87;100.00;-20896.31;5038074;28;20511;-69
2020/12/04 08:30:09;;;;;;;0.70;0.60;;;7.20;99.90;;;7.82;100.00;-20894.94;5053374;28;20430;-69
2020/12/04 08:32:37;;;;;;;0.70;0.50;;;7.20;99.90;;;7.80;100.00;-20894.38;5053384;28;20413;-69
2020/12/04 08:35:17;;;;;;;0.70;0.60;;;7.20;99.90;;;7.78;100.00;-20893.97;5052328;28;20525;-68
2020/12/04 08:37:45;;;;;;;0.70;0.50;;;7.10;99.90;;;7.82;100.00;-20894.94;5053080;28;20453;-70
2020/12/04 08:40:26;;;;;;;0.70;0.60;;;7.10;99.90;;;7.71;100.00;-20892.16;5052697;28;20998;-70
2020/12/04 08:43:07;;;;;;;0.70;0.60;;;7.10;99.90;;;7.85;100.00;-20895.75;5053019;28;20516;-69
2020/12/04 08:45:35;;;;;;;0.70;0.60;;;7.20;99.90;;;7.98;100.00;-20899.38;5054843;28;20416;-69
2020/12/04 08:48:09;;;;;;;0.70;0.60;;;7.20;99.90;;;7.87;100.00;-20896.31;5056926;28;20448;-69
2020/12/04 08:50:45;;;;;;;0.70;0.60;;;7.30;99.90;;;7.91;100.00;-20897.44;5057633;28;20820;-69
2020/12/04 08:53:15;;;;;;;0.70;0.60;;;7.30;99.90;;;7.84;100.00;-20895.47;5053367;28;20794;-70
2020/12/04 08:55:47;;;;;;;0.70;0.60;;;7.20;99.90;;;7.85;100.00;-20895.75;5037374;28;20855;-69
2020/12/04 08:58:15;;;;;;;1.00;0.80;;;7.20;99.90;;;7.91;100.00;-20897.44;5037910;28;20427;-69
2020/12/04 09:00:43;;;;;;;0.70;0.60;;;7.30;99.90;;;8.03;100.00;-20900.75;5037253;28;20789;-70
2020/12/04 09:03:11;;;;;;;0.70;0.60;;;7.30;99.90;;;8.05;100.00;-20901.31;5036916;28;20780;-70
2020/12/04 09:05:38;;;;;;;0.70;0.57;;;7.30;99.90;;;8.04;100.00;-20901.03;5050619;28;20423;-70
2020/12/04 09:08:06;;;;;;;0.70;0.60;;;7.40;99.90;;;8.09;100.00;-20902.41;5057485;28;20418;-70
2020/12/04 09:10:36;;;;;;;0.70;0.60;;;7.40;99.90;;;8.22;100.00;-20906.03;5056700;28;20438;-70
2020/12/04 09:13:04;;;;;;;0.70;0.60;;;7.50;99.90;;;8.36;100.00;-20909.63;5057191;28;20446;-69
2020/12/04 09:15:32;;;;;;;0.70;0.60;;;7.60;99.90;;;8.35;100.00;-20909.34;5056793;28;20532;-69
2020/12/04 09:18:00;;;;;;;0.70;0.53;;;7.60;99.90;;;8.40;100.00;-20910.75;5057096;28;20459;-69
2020/12/04 09:20:29;;;;;;;0.70;0.60;;;7.70;99.90;;;8.33;100.00;-20908.81;5057100;28;20436;-70
2020/12/04 09:22:56;;;;;;;0.70;0.60;;;7.70;99.90;;;8.29;100.00;-20907.69;5054700;28;20787;-69
2020/12/04 09:25:25;;;;;;;0.70;0.60;;;7.70;99.90;;;8.50;100.00;-20913.53;5034926;28;20472;-69
2020/12/04 09:27:53;;;;;;;0.70;0.60;;;7.70;99.90;;;8.64;100.00;-20917.41;5036813;28;20994;-70
2020/12/04 09:30:22;;;;;;;0.70;0.60;;;7.70;99.90;;;8.30;100.00;-20908.13;5036130;28;20428;-70
2020/12/04 09:32:50;;;;;;;0.70;0.50;;;7.70;99.90;;;8.28;100.00;-20907.41;5051844;28;20841;-68
2020/12/04 09:35:18;;;;;;;0.70;0.60;;;7.70;99.90;;;8.35;100.00;-20909.34;5057037;28;20456;-69
2020/12/04 09:37:47;;;;;;;0.70;0.60;;;7.70;99.90;;;8.36;100.00;-20909.78;5056472;28;20427;-69
2020/12/04 09:40:18;;;;;;;0.67;0.50;;;7.70;99.90;;;8.24;100.00;-20906.59;5056337;28;20453;-68
2020/12/04 09:42:46;;;;;;;1.20;1.10;;;7.60;99.90;;;8.27;100.00;-20907.13;5056459;28;20441;-68
2020/12/04 09:45:18;;;;;;;0.70;0.60;;;7.80;99.90;;;8.60;100.00;-20916.16;5055651;28;20406;-69
2020/12/04 09:47:45;;;;;;;0.70;0.60;;;7.90;99.90;;;8.82;100.00;-20922.25;5055963;28;20453;-68
2020/12/04 09:50:15;;;;;;;0.70;0.60;;;8.00;99.90;;;8.86;100.00;-20923.22;5056268;28;20923;-68
2020/12/04 09:52:43;;;;;;;0.70;0.60;;;8.00;99.90;;;8.75;100.00;-20920.19;5056102;28;20416;-71
2020/12/04 09:55:11;;;;;;;0.70;0.60;;;8.00;99.90;;;8.97;100.00;-20926.28;5035603;28;20485;-68
2020/12/04 09:57:43;;;;;;;0.70;0.70;;;8.10;99.90;;;9.24;100.00;-20933.47;5036635;28;20505;-68
2020/12/04 10:00:11;;;;;;;0.70;0.60;;;8.30;99.90;;;9.27;100.00;-20934.31;5055780;28;20810;-68
2020/12/04 10:02:39;;;;;;;0.70;0.67;;;8.40;99.90;;;9.50;100.00;-20940.53;5050526;28;20464;-69
2020/12/04 10:05:06;;;;;;;0.70;0.70;;;8.40;99.90;;;9.27;100.00;-20934.44;5036082;28;20497;-68
2020/12/04 10:07:33;;;;;;;0.70;0.60;;;8.40;99.90;;;9.22;100.00;-20932.94;5035651;28;20428;-69
2020/12/04 10:10:00;;;;;;;0.70;0.60;;;8.40;99.90;;;9.40;100.00;-20937.91;5034579;28;20533;-70
2020/12/04 10:12:28;;;;;;;0.70;0.60;;;8.40;99.90;;;9.46;100.00;-20939.56;5040624;28;20454;-68
2020/12/04 10:14:55;;;;;;;1.30;0.90;;;8.40;99.90;;;9.50;100.00;-20940.69;5051097;28;20464;-70
2020/12/04 10:17:23;;;;;;;0.70;0.60;;;8.40;99.90;;;9.39;100.00;-20937.66;5055173;28;20455;-70
2020/12/04 10:19:50;;;;;;;0.70;0.60;;;8.40;99.90;;;9.54;100.00;-20941.81;5055202;28;20416;-67
2020/12/04 10:22:17;;;;;;;0.70;0.60;;;8.40;99.90;;;9.54;100.00;-20941.81;5055778;28;20454;-67
2020/12/04 10:24:44;;;;;;;0.70;0.60;;;8.40;99.90;;;9.60;100.00;-20943.47;5038261;28;20460;-67
2020/12/04 10:27:12;;;;;;;0.70;0.70;;;8.50;99.90;;;9.44;100.00;-20939.16;5035167;28;20424;-69
2020/12/04 10:29:39;;;;;;;0.70;0.50;;;8.50;99.90;;;9.42;100.00;-20938.47;5035476;28;20424;-68
2020/12/04 10:32:06;;;;;;;0.70;0.70;;;8.50;99.90;;;9.64;100.00;-20944.56;5055051;28;20962;-68